Andravida Air Base

Airport
ICAO code: 
LGAD
IATA Code: 
PYR
Summary
ICAO Region: 
EUR
Territory: 
Location: 
Andravida, Western Greece
Serving: 
Andravida
Elevation: 
55 ft
Coordinates: 
Aerial View: 
37° 55' 14.52" N, 21° 17' 33.36" E
Metar
Observation
LGAD 270820Z 00000KT 9999 FEW018 SCT025 BKN080 17/14 Q1010
Station
Andravida Airport
Date/Time
2021-11-27 08:20:00
Wind direction
Wind speed
00 kts
Lowest cloud amount
few clouds
Temperature
17°C
Dew point
14°C
Humidity
82%
QNH
1010 hPa
Weather condition
n/a

Andravida Air Base is a military airport operated by the Hellenic Air Force, located 1.5 nm from the town of Andravida in Elis, Greece.

Climatology

Warm mediterranean climate (Köppen climate classification Csa)

Runways

Designator Length Width Surface Rops
16/34 3139 45 ASP No/No
Airport map: 
Aerial View: 

SKYbrary Partners:

Safety knowledge contributed by: